createdAt,value
2019-03-19T00:00:53.371Z,99.90
2019-03-19T00:03:23.757Z,99.90
2019-03-19T00:05:54.222Z,99.90
2019-03-19T00:08:24.564Z,99.90
2019-03-19T00:10:54.943Z,99.90
2019-03-19T00:13:25.806Z,99.90
2019-03-19T00:15:56.145Z,99.90
2019-03-19T00:18:26.509Z,99.90
2019-03-19T00:20:56.746Z,99.90
2019-03-19T00:23:27.224Z,99.90
2019-03-19T00:25:57.571Z,99.90
2019-03-19T00:28:27.768Z,99.90
2019-03-19T00:33:27.791Z,99.90
2019-03-19T00:35:58.107Z,99.90
2019-03-19T00:38:28.467Z,99.90
2019-03-19T00:40:58.689Z,99.90
2019-03-19T00:45:58.683Z,99.90
2019-03-19T00:48:29.358Z,99.90
2019-03-19T00:50:59.615Z,99.90
2019-03-19T00:53:29.999Z,99.90
2019-03-19T00:56:00.622Z,99.90
2019-03-19T00:58:30.895Z,99.90
2019-03-19T01:01:01.144Z,99.90
2019-03-19T01:03:31.496Z,99.90
2019-03-19T01:06:01.748Z,99.90
2019-03-19T01:08:32.032Z,99.90
2019-03-19T01:11:02.338Z,99.90
2019-03-19T01:13:32.676Z,99.90
2019-03-19T01:16:02.947Z,99.90
2019-03-19T01:18:33.262Z,99.90
2019-03-19T01:21:03.513Z,99.90
2019-03-19T01:23:33.849Z,99.90
2019-03-19T01:26:04.246Z,99.90
2019-03-19T01:28:34.971Z,99.90
2019-03-19T01:31:05.588Z,99.90
2019-03-19T01:33:35.858Z,99.90
2019-03-19T01:36:06.159Z,99.90
2019-03-19T01:38:36.548Z,99.90
2019-03-19T01:43:36.398Z,99.90
2019-03-19T01:46:06.680Z,99.90
2019-03-19T01:48:37.076Z,99.90
2019-03-19T01:51:07.420Z,99.90
2019-03-19T01:53:38.039Z,99.90
2019-03-19T01:56:08.391Z,99.90
2019-03-19T01:58:38.863Z,99.90
2019-03-19T02:01:09.335Z,99.90
2019-03-19T02:03:39.610Z,99.90
2019-03-19T02:06:09.872Z,99.90
2019-03-19T02:08:40.370Z,99.90
2019-03-19T02:11:10.635Z,99.90
2019-03-19T02:13:40.918Z,99.90
2019-03-19T02:16:11.299Z,99.90
2019-03-19T02:18:41.661Z,99.90
2019-03-19T02:21:11.879Z,99.90
2019-03-19T02:23:42.185Z,99.90
2019-03-19T02:26:16.676Z,99.90
2019-03-19T02:28:42.772Z,99.90
2019-03-19T02:31:13.062Z,99.90
2019-03-19T02:33:43.663Z,99.90
2019-03-19T02:38:43.382Z,99.90
2019-03-19T02:41:13.772Z,99.90
2019-03-19T02:43:44.140Z,99.90
2019-03-19T02:46:14.485Z,99.90
2019-03-19T02:48:44.662Z,99.90
2019-03-19T02:51:15.312Z,99.90
2019-03-19T02:53:45.558Z,99.90
2019-03-19T02:58:45.293Z,99.90
2019-03-19T03:01:15.576Z,99.90
2019-03-19T03:06:15.555Z,99.90
2019-03-19T03:08:45.815Z,99.90
2019-03-19T03:11:15.936Z,99.90
2019-03-19T03:13:46.135Z,99.90
2019-03-19T03:16:16.592Z,99.90
2019-03-19T03:18:46.955Z,99.90
2019-03-19T03:21:17.217Z,99.90
2019-03-19T03:23:47.596Z,99.90
2019-03-19T03:26:17.965Z,99.90
2019-03-19T03:28:48.361Z,99.90
2019-03-19T03:31:18.655Z,99.90
2019-03-19T03:33:49.341Z,99.90
2019-03-19T03:36:19.770Z,99.90
2019-03-19T03:38:50.223Z,99.90
2019-03-19T03:41:20.599Z,99.90
2019-03-19T03:43:51.012Z,99.90
2019-03-19T03:46:21.353Z,99.90
2019-03-19T03:48:51.762Z,99.90
2019-03-19T03:51:23.687Z,99.90
2019-03-19T03:53:54.056Z,99.90
2019-03-19T03:56:24.403Z,99.90
2019-03-19T03:59:00.621Z,99.90
2019-03-19T04:01:25.261Z,99.90
2019-03-19T04:03:55.603Z,99.90
2019-03-19T04:06:26.005Z,99.90
2019-03-19T04:08:56.373Z,99.90
2019-03-19T04:11:26.697Z,99.90
2019-03-19T04:13:56.903Z,99.90
2019-03-19T04:16:27.132Z,99.90
2019-03-19T04:18:57.511Z,99.90
2019-03-19T04:21:27.686Z,99.90
2019-03-19T04:23:58.107Z,99.90
2019-03-19T04:26:28.401Z,99.90
2019-03-19T04:28:58.950Z,99.90
2019-03-19T04:31:29.335Z,99.90
2019-03-19T04:33:59.616Z,99.90
2019-03-19T04:36:30.072Z,99.90
2019-03-19T04:39:00.372Z,99.90
2019-03-19T04:44:00.187Z,99.90
2019-03-19T04:46:30.376Z,99.90
2019-03-19T04:49:00.748Z,99.90
2019-03-19T04:51:30.995Z,99.90
2019-03-19T04:56:30.846Z,99.90
2019-03-19T04:59:01.054Z,99.90
2019-03-19T05:01:31.931Z,99.90
2019-03-19T05:04:02.384Z,99.90
2019-03-19T05:06:32.883Z,99.90
2019-03-19T05:09:03.337Z,99.90
2019-03-19T05:11:33.755Z,99.90
2019-03-19T05:14:04.114Z,99.90
2019-03-19T05:16:34.487Z,99.90
2019-03-19T05:19:04.984Z,99.90
2019-03-19T05:21:35.267Z,99.90
2019-03-19T05:24:05.683Z,99.90
2019-03-19T05:26:36.166Z,99.90
2019-03-19T05:29:06.343Z,99.90
2019-03-19T05:31:36.569Z,99.90
2019-03-19T05:34:06.978Z,99.90
2019-03-19T05:36:37.198Z,99.90
2019-03-19T05:39:08.516Z,99.90
2019-03-19T05:41:38.764Z,99.90
2019-03-19T05:44:09.076Z,99.90
2019-03-19T05:46:39.474Z,99.90
2019-03-19T05:49:09.740Z,99.90
2019-03-19T05:51:40.096Z,99.90
2019-03-19T05:54:10.434Z,99.90
2019-03-19T05:56:40.695Z,99.90
2019-03-19T05:59:10.919Z,99.90
2019-03-19T06:01:41.351Z,99.90
2019-03-19T06:04:11.672Z,99.90
2019-03-19T06:06:42.020Z,99.90
2019-03-19T06:09:12.466Z,99.90
2019-03-19T06:14:12.406Z,99.90
2019-03-19T06:16:43.033Z,99.90
2019-03-19T06:19:13.272Z,99.90
2019-03-19T06:21:43.835Z,99.90
2019-03-19T06:24:14.164Z,99.90
2019-03-19T06:26:44.584Z,99.90
2019-03-19T06:29:14.879Z,99.90
2019-03-19T06:31:45.185Z,99.90
2019-03-19T06:34:15.771Z,99.90
2019-03-19T06:36:46.148Z,99.90
2019-03-19T06:39:16.278Z,99.90
2019-03-19T06:41:47.592Z,99.90
2019-03-19T06:44:17.791Z,99.90
2019-03-19T06:46:48.112Z,99.90
2019-03-19T06:49:18.527Z,99.90
2019-03-19T06:51:48.798Z,99.90
2019-03-19T06:56:48.779Z,99.90
2019-03-19T06:59:19.123Z,99.90
2019-03-19T07:01:49.490Z,99.90
2019-03-19T07:04:19.724Z,99.90
2019-03-19T07:06:50.051Z,99.90
2019-03-19T07:09:20.176Z,99.90
2019-03-19T07:11:50.554Z,99.90
2019-03-19T07:14:20.892Z,99.90
2019-03-19T07:16:51.151Z,99.90
2019-03-19T07:19:21.700Z,99.90
2019-03-19T07:21:52.101Z,99.90
2019-03-19T07:24:22.447Z,99.90
2019-03-19T07:26:53.720Z,99.90
2019-03-19T07:29:23.716Z,99.90
2019-03-19T07:31:54.324Z,99.90
2019-03-19T07:34:24.612Z,99.90
2019-03-19T07:36:55.196Z,99.90
2019-03-19T07:39:25.449Z,99.90
2019-03-19T07:41:55.482Z,99.90
2019-03-19T07:44:25.481Z,99.90
2019-03-19T07:46:55.536Z,99.90
2019-03-19T07:49:25.811Z,99.90
2019-03-19T07:51:55.869Z,99.90
2019-03-19T07:54:26.297Z,99.90
2019-03-19T07:56:56.638Z,99.90
2019-03-19T07:59:26.863Z,99.90
2019-03-19T08:01:57.587Z,99.90
2019-03-19T08:04:27.916Z,99.90
2019-03-19T08:06:58.269Z,99.90
2019-03-19T08:09:28.731Z,99.90
2019-03-19T08:11:59.467Z,99.90
2019-03-19T08:14:29.772Z,99.90
2019-03-19T08:17:00.271Z,99.90
2019-03-19T08:19:30.532Z,99.90
2019-03-19T08:22:00.818Z,99.90
2019-03-19T08:24:31.235Z,99.90
2019-03-19T08:27:01.650Z,99.90
2019-03-19T08:29:31.877Z,99.90
2019-03-19T08:32:02.281Z,99.90
2019-03-19T08:34:32.465Z,99.90
2019-03-19T08:37:02.694Z,99.90
2019-03-19T08:39:32.968Z,99.90
2019-03-19T08:42:04.848Z,99.90
2019-03-19T08:44:35.230Z,99.90
2019-03-19T08:47:05.784Z,99.90
2019-03-19T08:52:05.338Z,99.90
2019-03-19T08:54:35.702Z,99.90
2019-03-19T08:57:06.245Z,99.90
2019-03-19T08:59:36.484Z,99.90
2019-03-19T09:02:06.771Z,99.90
2019-03-19T09:04:36.846Z,99.90
2019-03-19T09:07:07.363Z,99.90
2019-03-19T09:09:37.780Z,99.90
2019-03-19T09:12:08.062Z,99.90
2019-03-19T09:14:38.293Z,99.90
2019-03-19T09:17:08.472Z,99.90
2019-03-19T09:19:38.710Z,99.90
2019-03-19T09:22:08.917Z,99.90
2019-03-19T09:24:39.252Z,99.90
2019-03-19T09:27:09.485Z,99.90
2019-03-19T09:29:39.730Z,99.90
2019-03-19T09:32:10.049Z,99.90
2019-03-19T09:34:40.320Z,99.90
2019-03-19T09:37:10.644Z,99.90
2019-03-19T09:39:40.924Z,99.90
2019-03-19T09:42:11.668Z,99.90
2019-03-19T09:44:42.135Z,99.90
2019-03-19T09:47:12.507Z,99.90
2019-03-19T09:49:42.812Z,99.90
2019-03-19T09:52:13.121Z,99.90
2019-03-19T09:54:43.331Z,99.90
2019-03-19T09:57:13.790Z,99.90
2019-03-19T09:59:44.643Z,99.90
2019-03-19T10:02:14.120Z,99.90
2019-03-19T10:04:44.323Z,99.90
2019-03-19T10:07:14.548Z,99.90
2019-03-19T10:09:44.811Z,99.90
2019-03-19T10:12:15.412Z,99.90
2019-03-19T10:14:45.703Z,99.90
2019-03-19T10:17:15.885Z,99.90
2019-03-19T10:19:46.236Z,99.90
2019-03-19T10:22:16.651Z,99.90
2019-03-19T10:24:46.803Z,99.90
2019-03-19T10:27:19.492Z,99.90
2019-03-19T10:29:47.448Z,99.90
2019-03-19T10:32:17.726Z,99.90
2019-03-19T10:34:47.973Z,99.90
2019-03-19T10:37:18.318Z,99.90
2019-03-19T10:39:48.638Z,99.90
2019-03-19T10:42:19.455Z,99.90
2019-03-19T10:44:49.737Z,99.90
2019-03-19T10:47:20.041Z,99.90
2019-03-19T10:52:19.935Z,99.90
2019-03-19T10:54:50.119Z,99.90
2019-03-19T10:57:20.319Z,99.90
2019-03-19T10:59:52.475Z,99.90
2019-03-19T11:02:22.787Z,99.90
2019-03-19T11:04:53.313Z,99.90
2019-03-19T11:07:23.516Z,99.90
2019-03-19T11:09:53.803Z,99.90
2019-03-19T11:12:24.036Z,99.90
2019-03-19T11:14:54.273Z,99.90
2019-03-19T11:17:24.463Z,99.90
2019-03-19T11:19:54.725Z,99.90
2019-03-19T11:22:24.910Z,99.90
2019-03-19T11:24:55.070Z,99.90
2019-03-19T11:27:25.179Z,99.90
2019-03-19T11:29:59.750Z,99.90
2019-03-19T11:32:25.804Z,99.90
2019-03-19T11:34:56.147Z,99.90
2019-03-19T11:37:26.311Z,99.90
2019-03-19T11:39:56.721Z,99.90
2019-03-19T11:42:28.947Z,99.90
2019-03-19T11:44:59.155Z,99.90
2019-03-19T11:47:29.353Z,99.90
2019-03-19T11:49:59.763Z,99.90
2019-03-19T11:52:30.079Z,99.90
2019-03-19T11:55:00.384Z,99.90
2019-03-19T11:57:30.611Z,98.40
2019-03-19T12:00:10.865Z,99.90
2019-03-19T12:05:00.852Z,97.90
2019-03-19T12:07:31.058Z,98.80
2019-03-19T12:10:01.530Z,97.90
2019-03-19T12:12:31.776Z,99.20
2019-03-19T12:15:02.175Z,99.10
2019-03-19T12:17:32.452Z,99.30
2019-03-19T12:20:02.812Z,99.10
2019-03-19T12:22:32.928Z,98.30
2019-03-19T12:25:03.244Z,99.90
2019-03-19T12:27:33.510Z,99.90
2019-03-19T12:30:03.936Z,98.20
2019-03-19T12:32:34.194Z,96.00
2019-03-19T12:35:04.942Z,95.00
2019-03-19T12:37:35.859Z,92.70
2019-03-19T12:42:36.730Z,95.80
2019-03-19T12:45:07.824Z,96.00
2019-03-19T12:47:38.186Z,95.40
2019-03-19T12:50:09.786Z,95.80
2019-03-19T12:52:40.130Z,95.30
2019-03-19T12:55:10.780Z,93.30
2019-03-19T12:57:41.095Z,93.20
2019-03-19T13:02:43.411Z,87.90
2019-03-19T13:05:13.775Z,87.80
2019-03-19T13:07:44.127Z,85.10
2019-03-19T13:10:16.223Z,87.30
2019-03-19T13:12:46.548Z,87.50
2019-03-19T13:15:19.098Z,85.70
2019-03-19T13:17:47.546Z,84.80
2019-03-19T13:20:17.934Z,86.30
2019-03-19T13:22:48.256Z,88.50
2019-03-19T13:25:18.684Z,89.60
2019-03-19T13:27:48.779Z,89.50
2019-03-19T13:30:19.896Z,90.10
2019-03-19T13:32:50.188Z,91.30
2019-03-19T13:35:20.562Z,90.70
2019-03-19T13:37:50.901Z,91.60
2019-03-19T13:40:21.311Z,91.80
2019-03-19T13:45:21.506Z,93.90
2019-03-19T13:47:51.802Z,93.20
2019-03-19T13:50:22.215Z,94.10
2019-03-19T13:52:52.319Z,94.80
2019-03-19T13:55:22.640Z,95.20
2019-03-19T13:57:53.047Z,94.10
2019-03-19T14:00:23.429Z,93.50
2019-03-19T14:02:53.666Z,91.50
2019-03-19T14:05:24.523Z,81.70
2019-03-19T14:07:54.743Z,81.30
2019-03-19T14:10:25.656Z,81.20
2019-03-19T14:12:55.863Z,86.20
2019-03-19T14:15:26.224Z,89.20
2019-03-19T14:17:56.560Z,90.30
2019-03-19T14:20:26.939Z,91.90
2019-03-19T14:22:57.214Z,90.60
2019-03-19T14:25:27.496Z,92.70
2019-03-19T14:27:57.769Z,93.30
2019-03-19T14:30:28.258Z,94.50
2019-03-19T14:32:58.480Z,94.50
2019-03-19T14:35:36.965Z,94.90
2019-03-19T14:37:58.889Z,93.70
2019-03-19T14:40:29.232Z,93.00
2019-03-19T14:43:01.442Z,90.80
2019-03-19T14:45:30.220Z,89.10
2019-03-19T14:48:00.503Z,82.00
2019-03-19T14:50:31.203Z,78.80
2019-03-19T14:55:31.295Z,76.60
2019-03-19T14:58:01.668Z,76.90
2019-03-19T15:00:32.340Z,79.00
2019-03-19T15:03:02.599Z,79.40
2019-03-19T15:05:33.003Z,81.90
2019-03-19T15:08:03.350Z,85.50
2019-03-19T15:10:33.700Z,86.10
2019-03-19T15:13:03.948Z,86.30
2019-03-19T15:15:34.487Z,87.50
2019-03-19T15:18:04.739Z,88.40
2019-03-19T15:20:35.092Z,90.20
2019-03-19T15:23:05.578Z,90.20
2019-03-19T15:25:35.983Z,91.40
2019-03-19T15:28:06.251Z,91.90
2019-03-19T15:30:36.562Z,92.60
2019-03-19T15:33:06.883Z,92.90
2019-03-19T15:35:37.169Z,93.10
2019-03-19T15:38:07.520Z,93.70
2019-03-19T15:40:37.807Z,94.20
2019-03-19T15:43:08.191Z,94.70
2019-03-19T15:45:38.528Z,94.10
2019-03-19T15:48:08.790Z,92.70
2019-03-19T15:50:39.055Z,92.30
2019-03-19T15:53:09.439Z,92.80
2019-03-19T15:55:39.707Z,94.40
2019-03-19T15:58:10.008Z,95.40
2019-03-19T16:00:40.250Z,95.50
2019-03-19T16:03:10.552Z,96.70
2019-03-19T16:05:40.963Z,97.40
2019-03-19T16:08:11.152Z,98.20
2019-03-19T16:10:41.540Z,99.40
2019-03-19T16:13:11.892Z,99.90
2019-03-19T16:15:42.204Z,99.90
2019-03-19T16:18:12.321Z,99.90
2019-03-19T16:23:12.632Z,99.90
2019-03-19T16:25:42.870Z,99.90
2019-03-19T16:28:13.225Z,99.90
2019-03-19T16:30:43.521Z,99.90
2019-03-19T16:33:13.829Z,99.90
2019-03-19T16:35:44.137Z,99.90
2019-03-19T16:38:14.347Z,99.90
2019-03-19T16:40:44.610Z,99.90
2019-03-19T16:43:15.298Z,99.90
2019-03-19T16:45:45.714Z,99.90
2019-03-19T16:48:16.156Z,99.90
2019-03-19T16:50:46.447Z,99.90
2019-03-19T16:53:16.639Z,99.90
2019-03-19T16:55:47.048Z,99.90
2019-03-19T16:58:17.271Z,99.90
2019-03-19T17:00:47.548Z,99.90
2019-03-19T17:03:17.743Z,99.90
2019-03-19T17:05:48.294Z,99.90
2019-03-19T17:08:18.623Z,99.90
2019-03-19T17:10:48.959Z,99.90
2019-03-19T17:13:19.599Z,99.90
2019-03-19T17:15:49.984Z,99.90
2019-03-19T17:18:20.571Z,99.90
2019-03-19T17:20:50.981Z,99.90
2019-03-19T17:23:21.083Z,99.90
2019-03-19T17:25:51.331Z,99.90
2019-03-19T17:28:22.710Z,99.90
2019-03-19T17:30:51.925Z,99.90
2019-03-19T17:33:22.128Z,99.90
2019-03-19T17:35:52.479Z,99.90
2019-03-19T17:38:22.839Z,99.90
2019-03-19T17:40:53.203Z,99.90
2019-03-19T17:43:23.860Z,99.90
2019-03-19T17:45:54.263Z,99.90
2019-03-19T17:48:24.497Z,99.90
2019-03-19T17:50:55.731Z,99.90
2019-03-19T17:53:26.040Z,99.90
2019-03-19T17:55:56.323Z,99.90
2019-03-19T17:58:26.521Z,99.90
2019-03-19T18:00:56.823Z,99.90
2019-03-19T18:03:27.192Z,99.90
2019-03-19T18:05:57.395Z,99.90
2019-03-19T18:08:27.620Z,99.90
2019-03-19T18:10:57.865Z,99.90
2019-03-19T18:13:28.022Z,99.90
2019-03-19T18:15:58.406Z,99.90
2019-03-19T18:18:28.530Z,99.90
2019-03-19T18:20:58.755Z,99.90
2019-03-19T18:23:29.589Z,99.90
2019-03-19T18:25:59.373Z,99.90
2019-03-19T18:28:29.656Z,99.90
2019-03-19T18:30:59.977Z,99.90
2019-03-19T18:33:30.274Z,99.90
2019-03-19T18:36:00.721Z,99.90
2019-03-19T18:38:30.870Z,99.90
2019-03-19T18:41:01.207Z,99.90
2019-03-19T18:43:31.615Z,99.90
2019-03-19T18:46:01.896Z,99.90
2019-03-19T18:48:32.080Z,99.90
2019-03-19T18:51:02.644Z,99.90
2019-03-19T18:53:32.910Z,99.90
2019-03-19T18:56:03.240Z,99.90
2019-03-19T18:58:33.559Z,99.90
2019-03-19T19:01:03.884Z,99.90
2019-03-19T19:03:34.435Z,99.90
2019-03-19T19:06:04.848Z,99.90
2019-03-19T19:08:35.184Z,99.90
2019-03-19T19:11:05.543Z,99.90
2019-03-19T19:13:35.765Z,99.90
2019-03-19T19:16:06.219Z,99.90
2019-03-19T19:18:36.319Z,99.90
2019-03-19T19:21:06.687Z,99.90
2019-03-19T19:23:36.899Z,99.90
2019-03-19T19:26:07.198Z,99.90
2019-03-19T19:28:37.427Z,99.90
2019-03-19T19:31:07.795Z,99.90
2019-03-19T19:33:38.091Z,99.90
2019-03-19T19:36:08.431Z,99.90
2019-03-19T19:38:38.763Z,99.90
2019-03-19T19:41:09.070Z,99.90
2019-03-19T19:43:39.407Z,99.90
2019-03-19T19:46:09.698Z,99.90
2019-03-19T19:48:39.891Z,99.90
2019-03-19T19:51:10.203Z,99.90
2019-03-19T19:53:40.387Z,99.90
2019-03-19T19:56:10.836Z,99.90
2019-03-19T19:58:41.142Z,99.90
2019-03-19T20:03:41.280Z,99.90
2019-03-19T20:06:11.976Z,99.90
2019-03-19T20:08:42.312Z,99.90
2019-03-19T20:11:12.559Z,99.90
2019-03-19T20:16:12.460Z,99.90
2019-03-19T20:18:43.731Z,99.90
2019-03-19T20:23:43.767Z,99.90
2019-03-19T20:26:14.116Z,99.90
2019-03-19T20:28:44.358Z,99.90
2019-03-19T20:31:14.743Z,99.90
2019-03-19T20:33:45.075Z,99.90
2019-03-19T20:36:15.325Z,99.90
2019-03-19T20:38:45.719Z,99.90
2019-03-19T20:41:15.918Z,99.90
2019-03-19T20:43:46.156Z,99.90
2019-03-19T20:46:16.551Z,99.90
2019-03-19T20:48:46.922Z,99.90
2019-03-19T20:51:17.173Z,99.90
2019-03-19T20:53:47.460Z,99.90
2019-03-19T20:56:17.958Z,99.90
2019-03-19T20:58:48.309Z,99.90
2019-03-19T21:01:18.627Z,99.90
2019-03-19T21:03:49.023Z,99.90
2019-03-19T21:06:19.412Z,99.90
2019-03-19T21:08:49.798Z,99.90
2019-03-19T21:11:20.193Z,99.90
2019-03-19T21:13:50.442Z,99.90
2019-03-19T21:16:20.750Z,99.90
2019-03-19T21:18:51.103Z,99.90
2019-03-19T21:21:21.287Z,99.90
2019-03-19T21:23:51.559Z,99.90
2019-03-19T21:26:21.813Z,99.90
2019-03-19T21:28:52.063Z,99.90
2019-03-19T21:31:22.357Z,99.90
2019-03-19T21:33:52.478Z,99.90
2019-03-19T21:36:22.805Z,99.90
2019-03-19T21:38:53.031Z,99.90
2019-03-19T21:41:23.303Z,99.90
2019-03-19T21:43:53.568Z,99.90
2019-03-19T21:46:23.767Z,99.90
2019-03-19T21:48:54.067Z,99.90
2019-03-19T21:51:24.428Z,99.90
2019-03-19T21:53:54.715Z,99.90
2019-03-19T21:56:24.983Z,99.90
2019-03-19T21:58:55.271Z,99.90
2019-03-19T22:04:02.947Z,99.90
2019-03-19T22:06:25.743Z,99.90
2019-03-19T22:08:56.136Z,99.90
2019-03-19T22:11:26.432Z,99.90
2019-03-19T22:13:56.638Z,99.90
2019-03-19T22:16:26.947Z,99.90
2019-03-19T22:18:57.157Z,99.90
2019-03-19T22:21:27.473Z,99.90
2019-03-19T22:23:57.783Z,99.90
2019-03-19T22:26:28.139Z,99.90
2019-03-19T22:28:58.643Z,99.90
2019-03-19T22:31:28.951Z,99.90
2019-03-19T22:33:59.290Z,99.90
2019-03-19T22:38:59.220Z,99.90
2019-03-19T22:41:29.588Z,99.90
2019-03-19T22:43:59.878Z,99.90
2019-03-19T22:46:30.178Z,99.90
2019-03-19T22:49:00.517Z,99.90
2019-03-19T22:51:30.975Z,99.90
2019-03-19T22:54:01.218Z,99.90
2019-03-19T22:56:31.678Z,99.90
2019-03-19T22:59:01.979Z,99.90
2019-03-19T23:01:32.371Z,99.90
2019-03-19T23:04:02.553Z,99.90
2019-03-19T23:09:02.948Z,99.90
2019-03-19T23:11:33.452Z,99.90
2019-03-19T23:14:03.927Z,99.90
2019-03-19T23:16:34.382Z,99.90
2019-03-19T23:21:34.332Z,99.90
2019-03-19T23:24:04.587Z,99.90
2019-03-19T23:26:34.956Z,99.90
2019-03-19T23:29:05.458Z,99.90
2019-03-19T23:31:35.971Z,99.90
2019-03-19T23:34:06.483Z,99.90
2019-03-19T23:36:36.771Z,99.90
2019-03-19T23:39:07.578Z,99.90
2019-03-19T23:41:37.991Z,99.90
2019-03-19T23:44:08.306Z,99.90
2019-03-19T23:46:38.572Z,99.90
2019-03-19T23:49:08.843Z,99.90
2019-03-19T23:51:39.125Z,99.90
2019-03-19T23:54:09.355Z,99.90
2019-03-19T23:56:39.745Z,99.90
2019-03-19T23:59:10.103Z,99.90
